createdAt,value
2018-07-07T00:01:30.144Z,16.00
2018-07-07T00:03:59.593Z,15.90
2018-07-07T00:06:28.980Z,15.90
2018-07-07T00:08:58.336Z,15.80
2018-07-07T00:11:28.339Z,15.70
2018-07-07T00:13:57.744Z,15.80
2018-07-07T00:16:27.349Z,15.60
2018-07-07T00:18:56.646Z,15.50
2018-07-07T00:21:26.024Z,15.40
2018-07-07T00:23:55.344Z,15.20
2018-07-07T00:26:24.655Z,15.20
2018-07-07T00:28:54.249Z,15.20
2018-07-07T00:31:23.570Z,15.10
2018-07-07T00:33:52.873Z,15.10
2018-07-07T00:36:22.239Z,15.10
2018-07-07T00:38:51.545Z,15.10
2018-07-07T00:41:20.936Z,15.10
2018-07-07T00:43:50.233Z,15.20
2018-07-07T00:46:19.565Z,15.30
2018-07-07T00:48:48.886Z,15.30
2018-07-07T00:51:18.257Z,15.10
2018-07-07T00:53:47.707Z,15.10
2018-07-07T00:56:17.107Z,15.10
2018-07-07T00:58:46.513Z,15.00
2018-07-07T01:01:15.984Z,15.20
2018-07-07T01:03:45.874Z,15.00
2018-07-07T01:08:48.718Z,14.90
2018-07-07T01:11:18.107Z,14.90
2018-07-07T01:13:47.613Z,14.80
2018-07-07T01:16:17.313Z,14.80
2018-07-07T01:18:46.735Z,14.70
2018-07-07T01:21:16.024Z,14.80
2018-07-07T01:23:45.371Z,14.70
2018-07-07T01:26:14.735Z,14.70
2018-07-07T01:28:44.143Z,14.60
2018-07-07T01:31:13.836Z,14.40
2018-07-07T01:33:43.201Z,14.40
2018-07-07T01:36:12.552Z,14.40
2018-07-07T01:38:42.057Z,14.40
2018-07-07T01:41:11.638Z,14.40
2018-07-07T01:43:41.048Z,14.40
2018-07-07T01:46:10.529Z,14.40
2018-07-07T01:48:40.096Z,14.30
2018-07-07T01:51:09.467Z,14.20
2018-07-07T01:53:38.866Z,14.30
2018-07-07T01:56:08.225Z,14.20
2018-07-07T01:58:37.501Z,14.50
2018-07-07T02:01:07.270Z,14.50
2018-07-07T02:03:36.578Z,14.40
2018-07-07T02:06:05.979Z,14.30
2018-07-07T02:08:35.339Z,14.20
2018-07-07T02:11:04.718Z,14.20
2018-07-07T02:13:34.144Z,14.20
2018-07-07T02:18:32.761Z,14.00
2018-07-07T02:21:02.738Z,14.10
2018-07-07T02:23:32.280Z,14.10
2018-07-07T02:26:01.845Z,14.00
2018-07-07T02:28:31.275Z,13.90
2018-07-07T02:31:00.696Z,13.80
2018-07-07T02:33:30.356Z,13.70
2018-07-07T02:35:59.843Z,13.60
2018-07-07T02:38:29.313Z,13.60
2018-07-07T02:41:02.003Z,13.60
2018-07-07T02:43:31.357Z,13.50
2018-07-07T02:46:01.070Z,13.60
2018-07-07T02:48:30.411Z,13.50
2018-07-07T02:51:00.161Z,13.50
2018-07-07T02:53:29.637Z,13.40
2018-07-07T02:55:58.980Z,13.40
2018-07-07T02:58:28.318Z,13.50
2018-07-07T03:00:57.956Z,13.60
2018-07-07T03:03:27.498Z,13.50
2018-07-07T03:05:57.014Z,13.70
2018-07-07T03:08:26.396Z,13.60
2018-07-07T03:10:56.092Z,13.80
2018-07-07T03:13:25.535Z,13.80
2018-07-07T03:15:54.943Z,13.90
2018-07-07T03:18:24.847Z,14.00
2018-07-07T03:20:54.251Z,14.00
2018-07-07T03:25:52.592Z,14.00
2018-07-07T03:28:21.945Z,14.00
2018-07-07T03:30:51.359Z,14.00
2018-07-07T03:33:20.865Z,14.00
2018-07-07T03:35:50.197Z,13.90
2018-07-07T03:38:19.503Z,13.90
2018-07-07T03:40:49.103Z,14.00
2018-07-07T03:43:19.235Z,14.00
2018-07-07T03:45:48.801Z,14.10
2018-07-07T03:48:18.246Z,14.00
2018-07-07T03:50:47.993Z,14.00
2018-07-07T03:53:18.323Z,14.00
2018-07-07T03:55:47.849Z,13.90
2018-07-07T03:58:17.227Z,14.00
2018-07-07T04:00:46.792Z,14.10
2018-07-07T04:03:16.296Z,14.20
2018-07-07T04:05:45.657Z,14.20
2018-07-07T04:08:16.120Z,14.30
2018-07-07T04:10:45.632Z,14.30
2018-07-07T04:13:15.137Z,14.20
2018-07-07T04:15:44.638Z,14.10
2018-07-07T04:18:14.080Z,14.10
2018-07-07T04:20:43.438Z,14.00
2018-07-07T04:23:12.874Z,14.00
2018-07-07T04:25:42.386Z,13.80
2018-07-07T04:28:11.729Z,13.70
2018-07-07T04:30:41.037Z,13.70
2018-07-07T04:33:10.427Z,13.70
2018-07-07T04:35:39.750Z,13.70
2018-07-07T04:38:09.232Z,13.70
2018-07-07T04:40:38.537Z,13.90
2018-07-07T04:43:08.125Z,13.90
2018-07-07T04:45:37.444Z,14.10
2018-07-07T04:48:06.779Z,14.40
2018-07-07T04:50:36.437Z,14.40
2018-07-07T04:53:06.377Z,14.60
2018-07-07T04:55:35.914Z,14.50
2018-07-07T04:58:05.362Z,14.40
2018-07-07T05:00:34.767Z,14.60
2018-07-07T05:03:04.290Z,14.90
2018-07-07T05:05:33.619Z,14.80
2018-07-07T05:08:02.923Z,14.60
2018-07-07T05:10:32.351Z,14.70
2018-07-07T05:13:01.675Z,15.00
2018-07-07T05:15:31.042Z,15.10
2018-07-07T05:18:00.337Z,15.00
2018-07-07T05:20:30.264Z,15.00
2018-07-07T05:23:00.312Z,14.90
2018-07-07T05:27:58.517Z,15.20
2018-07-07T05:30:27.914Z,15.40
2018-07-07T05:32:57.214Z,15.70
2018-07-07T05:35:26.525Z,15.70
2018-07-07T05:37:55.892Z,15.90
2018-07-07T05:40:25.285Z,15.70
2018-07-07T05:42:54.882Z,15.80
2018-07-07T05:45:24.359Z,15.90
2018-07-07T05:47:54.582Z,16.10
2018-07-07T05:50:23.937Z,16.40
2018-07-07T05:52:53.412Z,16.10
2018-07-07T05:55:22.714Z,16.30
2018-07-07T05:57:52.117Z,16.60
2018-07-07T06:00:21.479Z,16.90
2018-07-07T06:05:19.736Z,17.50
2018-07-07T06:07:49.051Z,18.00
2018-07-07T06:10:18.384Z,17.80
2018-07-07T06:12:47.752Z,18.50
2018-07-07T06:15:17.076Z,19.10
2018-07-07T06:17:46.469Z,19.00
2018-07-07T06:20:15.766Z,18.70
2018-07-07T06:25:13.915Z,19.60
2018-07-07T06:27:43.324Z,19.60
2018-07-07T06:30:12.806Z,19.60
2018-07-07T06:32:42.205Z,20.00
2018-07-07T06:35:11.569Z,20.50
2018-07-07T06:37:40.869Z,20.70
2018-07-07T06:40:10.135Z,20.80
2018-07-07T06:42:39.460Z,21.30
2018-07-07T06:47:37.699Z,21.50
2018-07-07T06:50:07.206Z,21.60
2018-07-07T06:52:36.583Z,21.20
2018-07-07T06:55:06.303Z,21.00
2018-07-07T06:57:35.600Z,21.30
2018-07-07T07:00:05.415Z,21.10
2018-07-07T07:02:34.670Z,21.40
2018-07-07T07:07:32.919Z,21.10
2018-07-07T07:10:02.259Z,22.00
2018-07-07T07:12:31.539Z,21.70
2018-07-07T07:15:00.905Z,21.80
2018-07-07T07:17:30.223Z,22.50
2018-07-07T07:19:59.733Z,22.70
2018-07-07T07:22:29.132Z,22.20
2018-07-07T07:24:58.488Z,21.50
2018-07-07T07:27:27.808Z,22.00
2018-07-07T07:29:57.285Z,22.00
2018-07-07T07:32:26.582Z,21.90
2018-07-07T07:34:55.894Z,22.10
2018-07-07T07:37:25.225Z,22.10
2018-07-07T07:39:54.560Z,22.80
2018-07-07T07:42:23.867Z,23.30
2018-07-07T07:44:53.178Z,23.80
2018-07-07T07:47:22.551Z,23.60
2018-07-07T07:49:51.912Z,22.50
2018-07-07T07:52:21.263Z,22.60
2018-07-07T07:54:50.563Z,22.70
2018-07-07T07:57:19.908Z,23.00
2018-07-07T07:59:49.194Z,23.60
2018-07-07T08:02:18.584Z,23.50
2018-07-07T08:04:47.992Z,23.80
2018-07-07T08:09:46.238Z,24.40
2018-07-07T08:12:15.634Z,25.10
2018-07-07T08:14:44.909Z,24.30
2018-07-07T08:17:14.250Z,23.90
2018-07-07T08:19:43.605Z,24.30
2018-07-07T08:22:12.951Z,24.00
2018-07-07T08:24:42.282Z,24.50
2018-07-07T08:29:40.851Z,24.40
2018-07-07T08:32:10.276Z,25.00
2018-07-07T08:34:39.617Z,25.10
2018-07-07T08:37:09.746Z,25.40
2018-07-07T08:39:39.171Z,25.00
2018-07-07T08:42:08.531Z,26.00
2018-07-07T08:44:37.956Z,25.00
2018-07-07T08:47:07.348Z,24.40
2018-07-07T08:49:37.546Z,24.50
2018-07-07T08:52:07.699Z,25.50
2018-07-07T08:54:37.227Z,24.30
2018-07-07T08:57:06.603Z,24.20
2018-07-07T08:59:36.154Z,23.70
2018-07-07T09:02:05.627Z,25.70
2018-07-07T09:04:35.016Z,25.70
2018-07-07T09:07:04.366Z,26.90
2018-07-07T09:09:33.742Z,25.70
2018-07-07T09:12:03.142Z,25.90
2018-07-07T09:14:32.615Z,25.80
2018-07-07T09:17:02.412Z,25.80
2018-07-07T09:19:31.856Z,25.60
2018-07-07T09:22:01.313Z,25.50
2018-07-07T09:24:30.630Z,24.90
2018-07-07T09:27:00.877Z,25.10
2018-07-07T09:29:30.811Z,25.20
2018-07-07T09:32:00.144Z,25.80
2018-07-07T09:34:29.480Z,26.00
2018-07-07T09:36:58.900Z,25.60
2018-07-07T09:39:28.319Z,25.30
2018-07-07T09:41:57.609Z,25.00
2018-07-07T09:44:27.080Z,24.60
2018-07-07T09:46:56.415Z,26.10
2018-07-07T09:49:26.240Z,25.40
2018-07-07T09:51:55.567Z,26.30
2018-07-07T09:54:25.408Z,26.30
2018-07-07T09:56:54.879Z,27.00
2018-07-07T09:59:24.450Z,26.10
2018-07-07T10:01:53.954Z,25.20
2018-07-07T10:04:23.383Z,26.50
2018-07-07T10:06:52.681Z,26.30
2018-07-07T10:09:21.977Z,26.40
2018-07-07T10:11:51.270Z,27.30
2018-07-07T10:14:20.563Z,27.50
2018-07-07T10:16:49.843Z,25.80
2018-07-07T10:19:19.872Z,26.50
2018-07-07T10:21:49.216Z,25.40
2018-07-07T10:24:18.665Z,25.70
2018-07-07T10:26:48.065Z,25.50
2018-07-07T10:29:17.334Z,26.00
2018-07-07T10:31:46.724Z,26.50
2018-07-07T10:36:45.058Z,25.20
2018-07-07T10:39:14.608Z,26.70
2018-07-07T10:41:44.000Z,26.20
2018-07-07T10:44:13.470Z,26.90
2018-07-07T10:46:42.861Z,27.50
2018-07-07T10:49:12.322Z,26.90
2018-07-07T10:54:10.654Z,27.30
2018-07-07T10:56:40.019Z,26.40
2018-07-07T11:01:38.637Z,27.30
2018-07-07T11:04:09.023Z,26.50
2018-07-07T11:06:38.395Z,27.50
2018-07-07T11:09:08.017Z,28.40
2018-07-07T11:11:37.411Z,27.40
2018-07-07T11:14:06.914Z,28.10
2018-07-07T11:16:36.301Z,27.30
2018-07-07T11:19:05.954Z,28.50
2018-07-07T11:21:35.323Z,27.90
2018-07-07T11:24:04.651Z,28.30
2018-07-07T11:26:34.025Z,28.20
2018-07-07T11:29:03.365Z,28.40
2018-07-07T11:31:32.935Z,27.30
2018-07-07T11:34:02.253Z,29.10
2018-07-07T11:36:31.760Z,29.50
2018-07-07T11:39:01.009Z,28.50
2018-07-07T11:41:30.344Z,29.60
2018-07-07T11:43:59.636Z,29.60
2018-07-07T11:46:29.087Z,29.50
2018-07-07T11:53:57.580Z,29.80
2018-07-07T11:56:26.956Z,29.70
2018-07-07T11:58:56.308Z,30.20
2018-07-07T12:01:25.669Z,30.30
2018-07-07T12:03:55.142Z,29.50
2018-07-07T12:06:24.608Z,28.50
2018-07-07T12:08:54.000Z,26.30
2018-07-07T12:11:23.396Z,26.70
2018-07-07T12:13:52.761Z,27.20
2018-07-07T12:16:22.094Z,29.00
2018-07-07T12:18:51.662Z,29.30
2018-07-07T12:21:21.056Z,29.30
2018-07-07T12:23:50.484Z,29.40
2018-07-07T12:26:19.797Z,29.30
2018-07-07T12:28:49.170Z,28.60
2018-07-07T12:31:19.559Z,29.40
2018-07-07T12:33:48.876Z,27.70
2018-07-07T12:36:18.272Z,27.60
2018-07-07T12:38:47.629Z,27.80
2018-07-07T12:41:17.072Z,26.90
2018-07-07T12:43:46.519Z,28.60
2018-07-07T12:46:15.888Z,28.80
2018-07-07T12:48:45.329Z,28.80
2018-07-07T12:51:14.775Z,27.90
2018-07-07T12:53:44.338Z,29.00
2018-07-07T12:56:14.770Z,28.00
2018-07-07T12:58:44.196Z,28.90
2018-07-07T13:01:13.761Z,29.00
2018-07-07T13:03:43.152Z,28.90
2018-07-07T13:06:12.509Z,28.10
2018-07-07T13:08:41.932Z,28.50
2018-07-07T13:13:40.176Z,28.50
2018-07-07T13:16:09.680Z,28.30
2018-07-07T13:18:39.022Z,29.10
2018-07-07T13:21:08.514Z,28.80
2018-07-07T13:23:37.835Z,27.50
2018-07-07T13:28:35.972Z,28.00
2018-07-07T13:31:05.481Z,28.40
2018-07-07T13:33:35.575Z,28.60
2018-07-07T13:36:04.995Z,27.90
2018-07-07T13:38:37.100Z,29.90
2018-07-07T13:41:08.434Z,30.60
2018-07-07T13:43:38.896Z,30.10
2018-07-07T13:46:08.504Z,29.50
2018-07-07T13:48:37.909Z,29.10
2018-07-07T13:51:07.437Z,28.80
2018-07-07T13:56:05.833Z,28.60
2018-07-07T13:58:35.268Z,28.80
2018-07-07T14:01:05.490Z,28.10
2018-07-07T14:03:35.038Z,28.50
2018-07-07T14:06:04.468Z,28.20
2018-07-07T14:08:34.745Z,28.20
2018-07-07T14:13:33.036Z,27.90
2018-07-07T14:16:02.361Z,27.80
2018-07-07T14:18:31.766Z,28.00
2018-07-07T14:21:01.166Z,28.40
2018-07-07T14:23:30.627Z,28.40
2018-07-07T14:26:00.054Z,28.00
2018-07-07T14:28:29.711Z,28.50
2018-07-07T14:30:59.230Z,29.50
2018-07-07T14:33:28.630Z,30.00
2018-07-07T14:35:58.030Z,30.40
2018-07-07T14:38:34.030Z,29.30
2018-07-07T14:41:14.493Z,30.10
2018-07-07T14:46:17.716Z,29.90
2018-07-07T14:48:47.060Z,29.50
2018-07-07T14:51:16.690Z,28.40
2018-07-07T14:53:46.261Z,28.90
2018-07-07T14:56:16.623Z,28.50
2018-07-07T14:58:45.981Z,29.20
2018-07-07T15:01:15.401Z,29.40
2018-07-07T15:03:45.213Z,29.80
2018-07-07T15:06:15.129Z,28.40
2018-07-07T15:08:44.517Z,28.30
2018-07-07T15:11:13.879Z,29.20
2018-07-07T15:18:42.178Z,28.60
2018-07-07T15:21:11.702Z,29.10
2018-07-07T15:23:41.690Z,28.90
2018-07-07T15:26:11.015Z,28.10
2018-07-07T15:28:40.353Z,28.10
2018-07-07T15:31:09.720Z,28.20
2018-07-07T15:33:39.083Z,28.30
2018-07-07T15:36:08.639Z,27.90
2018-07-07T15:38:38.204Z,27.30
2018-07-07T15:41:07.505Z,27.20
2018-07-07T15:43:36.847Z,27.70
2018-07-07T15:46:06.372Z,28.30
2018-07-07T15:48:35.739Z,28.30
2018-07-07T15:53:34.110Z,28.30
2018-07-07T15:56:03.499Z,28.30
2018-07-07T15:58:33.073Z,28.40
2018-07-07T16:01:02.616Z,28.20
2018-07-07T16:03:32.111Z,27.50
2018-07-07T16:06:01.390Z,27.50
2018-07-07T16:08:30.718Z,27.90
2018-07-07T16:11:00.105Z,27.60
2018-07-07T16:13:29.628Z,27.70
2018-07-07T16:15:58.977Z,27.90
2018-07-07T16:18:28.424Z,27.70
2018-07-07T16:20:57.881Z,27.50
2018-07-07T16:23:27.385Z,27.60
2018-07-07T16:28:25.792Z,26.60
2018-07-07T16:30:55.570Z,26.90
2018-07-07T16:33:25.727Z,27.00
2018-07-07T16:38:24.913Z,26.90
2018-07-07T16:43:24.450Z,27.00
2018-07-07T16:45:53.843Z,26.80
2018-07-07T16:48:23.827Z,26.80
2018-07-07T16:50:53.514Z,27.00
2018-07-07T16:53:23.015Z,26.90
2018-07-07T16:55:52.423Z,27.10
2018-07-07T16:58:22.222Z,26.90
2018-07-07T17:00:51.634Z,26.90
2018-07-07T17:03:21.293Z,26.80
2018-07-07T17:05:50.807Z,26.90
2018-07-07T17:08:20.247Z,27.10
2018-07-07T17:10:49.658Z,27.00
2018-07-07T17:13:19.112Z,27.10
2018-07-07T17:15:49.463Z,26.80
2018-07-07T17:18:18.994Z,26.60
2018-07-07T17:23:17.474Z,26.60
2018-07-07T17:25:47.183Z,26.40
2018-07-07T17:28:16.616Z,26.10
2018-07-07T17:30:46.031Z,25.80
2018-07-07T17:33:15.631Z,25.60
2018-07-07T17:35:45.698Z,25.50
2018-07-07T17:38:16.178Z,25.20
2018-07-07T17:40:46.248Z,25.10
2018-07-07T17:43:15.707Z,25.10
2018-07-07T17:45:45.274Z,24.90
2018-07-07T17:48:15.838Z,24.90
2018-07-07T17:50:45.335Z,25.00
2018-07-07T17:53:16.505Z,24.90
2018-07-07T17:58:14.875Z,24.60
2018-07-07T18:00:44.627Z,24.50
2018-07-07T18:03:14.563Z,24.60
2018-07-07T18:05:44.137Z,24.70
2018-07-07T18:08:14.370Z,24.60
2018-07-07T18:10:43.734Z,24.50
2018-07-07T18:13:13.059Z,24.40
2018-07-07T18:15:42.363Z,24.40
2018-07-07T18:20:40.778Z,24.20
2018-07-07T18:23:10.181Z,24.10
2018-07-07T18:25:39.495Z,24.00
2018-07-07T18:28:08.819Z,24.00
2018-07-07T18:30:38.453Z,24.00
2018-07-07T18:35:36.754Z,23.90
2018-07-07T18:38:06.528Z,23.90
2018-07-07T18:40:35.785Z,23.70
2018-07-07T18:43:05.662Z,23.60
2018-07-07T18:45:35.809Z,23.70
2018-07-07T18:48:05.259Z,23.60
2018-07-07T18:50:34.810Z,23.40
2018-07-07T18:53:04.405Z,23.40
2018-07-07T18:55:33.849Z,23.40
2018-07-07T18:58:03.257Z,23.40
2018-07-07T19:00:33.215Z,23.20
2018-07-07T19:03:02.766Z,23.20
2018-07-07T19:05:32.303Z,23.00
2018-07-07T19:08:02.245Z,23.00
2018-07-07T19:10:32.026Z,23.00
2018-07-07T19:13:01.401Z,22.80
2018-07-07T19:15:31.040Z,22.80
2018-07-07T19:20:34.982Z,22.70
2018-07-07T19:23:09.902Z,22.60
2018-07-07T19:25:44.940Z,22.60
2018-07-07T19:28:14.579Z,22.50
2018-07-07T19:30:44.215Z,22.40
2018-07-07T19:33:19.188Z,22.40
2018-07-07T19:35:53.925Z,22.30
2018-07-07T19:40:53.203Z,22.20
2018-07-07T19:43:23.096Z,22.00
2018-07-07T19:45:52.473Z,21.90
2018-07-07T19:48:21.945Z,22.00
2018-07-07T19:50:51.794Z,21.70
2018-07-07T19:53:21.325Z,21.70
2018-07-07T19:55:50.672Z,21.60
2018-07-07T19:58:20.411Z,21.60
2018-07-07T20:00:49.765Z,21.70
2018-07-07T20:03:19.205Z,21.70
2018-07-07T20:08:17.715Z,21.30
2018-07-07T20:13:19.334Z,21.30
2018-07-07T20:16:20.700Z,21.30
2018-07-07T20:19:16.532Z,21.30
2018-07-07T20:24:23.257Z,21.20
2018-07-07T20:26:57.792Z,21.10
2018-07-07T20:29:27.347Z,21.10
2018-07-07T20:31:56.715Z,21.00
2018-07-07T20:34:27.466Z,20.90
2018-07-07T20:36:56.972Z,20.80
2018-07-07T20:39:26.682Z,20.70
2018-07-07T20:41:56.206Z,20.70
2018-07-07T20:44:25.535Z,20.60
2018-07-07T20:46:54.937Z,20.50
2018-07-07T20:49:24.409Z,20.50
2018-07-07T20:51:53.671Z,20.40
2018-07-07T20:54:23.195Z,20.20
2018-07-07T20:56:52.520Z,20.20
2018-07-07T21:01:50.890Z,20.10
2018-07-07T21:04:20.278Z,20.00
2018-07-07T21:06:49.673Z,20.00
2018-07-07T21:09:20.057Z,20.00
2018-07-07T21:16:47.158Z,19.80
2018-07-07T21:21:45.521Z,19.80
2018-07-07T21:24:14.957Z,19.80
2018-07-07T21:26:44.266Z,19.70
2018-07-07T21:29:13.706Z,19.70
2018-07-07T21:31:46.045Z,19.60
2018-07-07T21:34:16.504Z,19.50
2018-07-07T21:36:45.799Z,19.40
2018-07-07T21:39:15.084Z,19.30
2018-07-07T21:41:45.012Z,19.30
2018-07-07T21:44:14.609Z,19.20
2018-07-07T21:46:44.142Z,19.10
2018-07-07T21:49:14.267Z,19.10
2018-07-07T21:51:43.713Z,19.10
2018-07-07T21:56:42.270Z,19.00
2018-07-07T21:59:17.109Z,19.00
2018-07-07T22:01:56.586Z,18.90
2018-07-07T22:04:32.166Z,18.90
2018-07-07T22:07:08.855Z,18.80
2018-07-07T22:09:38.821Z,18.70
2018-07-07T22:12:08.334Z,18.70
2018-07-07T22:14:37.974Z,18.60
2018-07-07T22:17:07.379Z,18.50
2018-07-07T22:19:36.798Z,18.50
2018-07-07T22:22:07.417Z,18.40
2018-07-07T22:24:37.635Z,18.30
2018-07-07T22:27:08.494Z,18.30
2018-07-07T22:29:38.164Z,18.20
2018-07-07T22:32:13.888Z,18.20
2018-07-07T22:34:43.874Z,18.10
2018-07-07T22:39:43.137Z,18.00
2018-07-07T22:42:16.404Z,18.00
2018-07-07T22:44:47.992Z,17.90
2018-07-07T22:47:17.361Z,17.90
2018-07-07T22:49:46.720Z,17.70
2018-07-07T22:52:16.109Z,17.70
2018-07-07T22:54:45.488Z,17.70
2018-07-07T22:57:14.799Z,17.60
2018-07-07T22:59:44.361Z,17.70
2018-07-07T23:02:13.650Z,17.60
2018-07-07T23:04:43.112Z,17.50
2018-07-07T23:07:12.448Z,17.40
2018-07-07T23:09:41.810Z,17.30
2018-07-07T23:12:11.209Z,17.20
2018-07-07T23:14:40.726Z,17.20
2018-07-07T23:17:10.309Z,17.10
2018-07-07T23:19:39.593Z,17.10
2018-07-07T23:22:23.571Z,17.10
2018-07-07T23:24:53.298Z,17.10
2018-07-07T23:27:22.761Z,17.00
2018-07-07T23:29:52.245Z,16.90
2018-07-07T23:32:21.581Z,16.90
2018-07-07T23:34:51.046Z,16.80
2018-07-07T23:37:20.327Z,16.70
2018-07-07T23:39:49.704Z,16.70
2018-07-07T23:42:19.242Z,16.60
2018-07-07T23:44:48.748Z,16.50
2018-07-07T23:47:18.259Z,16.50
2018-07-07T23:49:47.973Z,16.50
2018-07-07T23:52:17.328Z,16.40
2018-07-07T23:54:46.714Z,16.40
2018-07-07T23:57:16.377Z,16.50
2018-07-07T23:59:46.117Z,16.50
